sensor_id;sensor_type;location;lat;lon;timestamp;P1;P2;P0
51320;PMS5003;38732;49.556;6.286;2023-03-01T00:01:19;4.50;4.50;3.50
51320;PMS5003;38732;49.556;6.286;2023-03-01T00:03:49;9.60;7.60;3.60
51320;PMS5003;38732;49.556;6.286;2023-03-01T00:06:18;8.25;6.00;3.50
51320;PMS5003;38732;49.556;6.286;2023-03-01T00:08:47;10.60;8.00;4.40
51320;PMS5003;38732;49.556;6.286;2023-03-01T00:11:17;6.20;4.00;3.60
51320;PMS5003;38732;49.556;6.286;2023-03-01T00:13:54;6.80;6.60;3.80
51320;PMS5003;38732;49.556;6.286;2023-03-01T00:16:27;10.40;8.60;4.00
51320;PMS5003;38732;49.556;6.286;2023-03-01T00:18:57;10.40;7.00;3.60
51320;PMS5003;38732;49.556;6.286;2023-03-01T00:21:26;6.80;6.00;3.20
51320;PMS5003;38732;49.556;6.286;2023-03-01T00:23:55;14.00;7.00;4.00
51320;PMS5003;38732;49.556;6.286;2023-03-01T00:26:24;7.00;7.00;4.00
51320;PMS5003;38732;49.556;6.286;2023-03-01T00:28:53;12.40;9.60;4.40
51320;PMS5003;38732;49.556;6.286;2023-03-01T00:31:23;9.00;6.00;3.00
51320;PMS5003;38732;49.556;6.286;2023-03-01T00:33:53;9.40;9.40;5.60
51320;PMS5003;38732;49.556;6.286;2023-03-01T00:36:23;7.00;7.00;4.80
51320;PMS5003;38732;49.556;6.286;2023-03-01T00:38:56;9.20;5.60;3.00
51320;PMS5003;38732;49.556;6.286;2023-03-01T00:41:25;7.00;6.00;1.00
51320;PMS5003;38732;49.556;6.286;2023-03-01T00:43:53;8.75;6.25;3.25
51320;PMS5003;38732;49.556;6.286;2023-03-01T00:46:23;9.00;4.00;3.00
51320;PMS5003;38732;49.556;6.286;2023-03-01T00:48:53;10.40;8.80;3.60
51320;PMS5003;38732;49.556;6.286;2023-03-01T00:51:23;11.50;8.00;3.75
51320;PMS5003;38732;49.556;6.286;2023-03-01T00:53:55;12.40;10.00;6.00
51320;PMS5003;38732;49.556;6.286;2023-03-01T00:56:25;9.40;9.40;5.60
51320;PMS5003;38732;49.556;6.286;2023-03-01T00:58:53;12.25;10.50;6.00
51320;PMS5003;38732;49.556;6.286;2023-03-01T01:01:22;11.00;8.50;4.00
51320;PMS5003;38732;49.556;6.286;2023-03-01T01:03:54;13.20;10.60;4.60
51320;PMS5003;38732;49.556;6.286;2023-03-01T01:06:34;10.20;9.40;4.80
51320;PMS5003;38732;49.556;6.286;2023-03-01T01:09:05;11.20;8.20;4.40
51320;PMS5003;38732;49.556;6.286;2023-03-01T01:11:35;9.00;7.80;4.40
51320;PMS5003;38732;49.556;6.286;2023-03-01T01:14:03;8.25;6.50;3.00
51320;PMS5003;38732;49.556;6.286;2023-03-01T01:16:32;14.50;9.00;4.00
51320;PMS5003;38732;49.556;6.286;2023-03-01T01:19:00;6.75;6.75;4.75
51320;PMS5003;38732;49.556;6.286;2023-03-01T01:21:28;7.75;7.00;4.00
51320;PMS5003;38732;49.556;6.286;2023-03-01T01:23:57;8.00;8.00;3.25
51320;PMS5003;38732;49.556;6.286;2023-03-01T01:26:26;9.75;7.50;5.00
51320;PMS5003;38732;49.556;6.286;2023-03-01T01:28:56;7.20;6.20;3.20
51320;PMS5003;38732;49.556;6.286;2023-03-01T01:31:25;6.50;6.50;4.50
51320;PMS5003;38732;49.556;6.286;2023-03-01T01:33:55;9.80;7.80;4.00
51320;PMS5003;38732;49.556;6.286;2023-03-01T01:36:24;8.00;7.40;3.80
51320;PMS5003;38732;49.556;6.286;2023-03-01T01:38:52;8.00;8.00;4.00
51320;PMS5003;38732;49.556;6.286;2023-03-01T01:41:21;6.50;6.50;4.00
51320;PMS5003;38732;49.556;6.286;2023-03-01T01:50:08;13.80;10.80;6.00
51320;PMS5003;38732;49.556;6.286;2023-03-01T01:52:32;9.80;9.40;7.00
51320;PMS5003;38732;49.556;6.286;2023-03-01T01:55:05;10.00;9.00;4.80
51320;PMS5003;38732;49.556;6.286;2023-03-01T01:57:46;9.60;9.40;6.00
51320;PMS5003;38732;49.556;6.286;2023-03-01T02:00:18;10.00;5.40;3.00
51320;PMS5003;38732;49.556;6.286;2023-03-01T02:02:50;12.60;10.40;6.00
51320;PMS5003;38732;49.556;6.286;2023-03-01T02:05:34;10.60;8.60;6.00
51320;PMS5003;38732;49.556;6.286;2023-03-01T02:08:29;8.40;6.60;4.20
51320;PMS5003;38732;49.556;6.286;2023-03-01T02:11:01;14.20;11.40;6.20
51320;PMS5003;38732;49.556;6.286;2023-03-01T02:13:30;10.00;8.50;4.50
51320;PMS5003;38732;49.556;6.286;2023-03-01T02:16:04;10.80;8.40;4.00
51320;PMS5003;38732;49.556;6.286;2023-03-01T02:18:35;10.40;6.80;3.00
51320;PMS5003;38732;49.556;6.286;2023-03-01T02:23:57;12.60;10.00;7.00
51320;PMS5003;38732;49.556;6.286;2023-03-01T02:26:37;9.60;9.00;6.00
51320;PMS5003;38732;49.556;6.286;2023-03-01T02:29:10;13.00;6.60;3.80
51320;PMS5003;38732;49.556;6.286;2023-03-01T02:31:38;10.50;6.50;3.50
51320;PMS5003;38732;49.556;6.286;2023-03-01T02:34:07;10.75;6.25;3.50
51320;PMS5003;38732;49.556;6.286;2023-03-01T02:39:17;10.00;8.20;6.00
51320;PMS5003;38732;49.556;6.286;2023-03-01T02:41:51;15.80;10.40;5.60
51320;PMS5003;38732;49.556;6.286;2023-03-01T02:44:21;11.60;11.60;4.80
51320;PMS5003;38732;49.556;6.286;2023-03-01T02:46:50;17.00;12.50;5.50
51320;PMS5003;38732;49.556;6.286;2023-03-01T02:49:21;7.60;5.60;3.80
51320;PMS5003;38732;49.556;6.286;2023-03-01T02:57:13;13.20;9.40;5.60
51320;PMS5003;38732;49.556;6.286;2023-03-01T02:59:41;10.00;10.00;6.50
51320;PMS5003;38732;49.556;6.286;2023-03-01T03:02:44;8.50;8.50;6.00
51320;PMS5003;38732;49.556;6.286;2023-03-01T03:05:06;8.50;6.75;4.00
51320;PMS5003;38732;49.556;6.286;2023-03-01T03:07:38;12.00;12.00;7.00
51320;PMS5003;38732;49.556;6.286;2023-03-01T03:10:09;8.40;6.00;3.00
51320;PMS5003;38732;49.556;6.286;2023-03-01T03:12:43;11.60;8.20;3.80
51320;PMS5003;38732;49.556;6.286;2023-03-01T03:15:11;15.33;10.00;6.33
51320;PMS5003;38732;49.556;6.286;2023-03-01T03:17:40;15.33;9.67;4.00
51320;PMS5003;38732;49.556;6.286;2023-03-01T03:20:10;13.50;12.25;7.25
51320;PMS5003;38732;49.556;6.286;2023-03-01T03:22:40;12.00;9.80;6.00
51320;PMS5003;38732;49.556;6.286;2023-03-01T03:25:09;13.50;11.50;6.25
51320;PMS5003;38732;49.556;6.286;2023-03-01T03:27:37;10.67;8.00;4.67
51320;PMS5003;38732;49.556;6.286;2023-03-01T03:30:06;9.75;6.00;4.00
51320;PMS5003;38732;49.556;6.286;2023-03-01T03:32:36;14.60;11.20;6.60
51320;PMS5003;38732;49.556;6.286;2023-03-01T03:35:05;9.67;9.67;6.00
51320;PMS5003;38732;49.556;6.286;2023-03-01T03:37:38;12.40;10.80;6.20
51320;PMS5003;38732;49.556;6.286;2023-03-01T03:40:08;10.00;7.00;3.60
51320;PMS5003;38732;49.556;6.286;2023-03-01T03:42:37;11.00;8.75;5.50
51320;PMS5003;38732;49.556;6.286;2023-03-01T03:45:05;21.33;13.00;7.67
51320;PMS5003;38732;49.556;6.286;2023-03-01T03:47:33;20.50;11.50;8.50
51320;PMS5003;38732;49.556;6.286;2023-03-01T03:50:01;9.00;9.00;5.50
51320;PMS5003;38732;49.556;6.286;2023-03-01T03:52:30;9.25;8.00;3.50
51320;PMS5003;38732;49.556;6.286;2023-03-01T03:54:58;13.00;9.00;6.00
51320;PMS5003;38732;49.556;6.286;2023-03-01T03:57:26;3.00;1.50;0.00
51320;PMS5003;38732;49.556;6.286;2023-03-01T03:59:54;7.50;7.00;1.00
51320;PMS5003;38732;49.556;6.286;2023-03-01T04:02:22;6.00;4.00;1.00
51320;PMS5003;38732;49.556;6.286;2023-03-01T04:04:51;9.75;6.50;3.00
51320;PMS5003;38732;49.556;6.286;2023-03-01T04:07:19;18.00;15.00;9.00
51320;PMS5003;38732;49.556;6.286;2023-03-01T04:09:47;9.75;9.75;4.00
51320;PMS5003;38732;49.556;6.286;2023-03-01T04:12:15;13.00;10.00;6.00
51320;PMS5003;38732;49.556;6.286;2023-03-01T04:14:44;13.50;10.50;6.00
51320;PMS5003;38732;49.556;6.286;2023-03-01T04:17:12;9.00;8.50;6.00
51320;PMS5003;38732;49.556;6.286;2023-03-01T04:19:40;15.67;10.00;6.00
51320;PMS5003;38732;49.556;6.286;2023-03-01T04:22:08;7.50;6.25;3.75
51320;PMS5003;38732;49.556;6.286;2023-03-01T04:24:36;18.00;11.50;6.00
51320;PMS5003;38732;49.556;6.286;2023-03-01T04:27:05;16.50;11.00;5.00
51320;PMS5003;38732;49.556;6.286;2023-03-01T04:29:33;15.33;8.33;4.00
51320;PMS5003;38732;49.556;6.286;2023-03-01T04:32:01;8.33;6.67;3.00
51320;PMS5003;38732;49.556;6.286;2023-03-01T04:34:29;4.67;4.00;3.00
51320;PMS5003;38732;49.556;6.286;2023-03-01T04:36:57;10.00;6.67;4.67
51320;PMS5003;38732;49.556;6.286;2023-03-01T04:39:26;12.25;9.25;4.50
51320;PMS5003;38732;49.556;6.286;2023-03-01T04:41:54;7.00;6.00;3.00
51320;PMS5003;38732;49.556;6.286;2023-03-01T04:44:22;14.67;9.00;7.00
51320;PMS5003;38732;49.556;6.286;2023-03-01T04:46:50;10.67;9.67;7.00
51320;PMS5003;38732;49.556;6.286;2023-03-01T04:49:18;12.67;10.00;4.00
51320;PMS5003;38732;49.556;6.286;2023-03-01T04:51:46;14.25;7.75;4.50
51320;PMS5003;38732;49.556;6.286;2023-03-01T04:54:15;17.33;15.67;9.00
51320;PMS5003;38732;49.556;6.286;2023-03-01T04:56:43;16.75;12.00;6.00
51320;PMS5003;38732;49.556;6.286;2023-03-01T04:59:11;13.67;13.00;7.00
51320;PMS5003;38732;49.556;6.286;2023-03-01T05:01:39;20.33;14.67;6.67
51320;PMS5003;38732;49.556;6.286;2023-03-01T05:04:07;17.25;10.25;4.50
51320;PMS5003;38732;49.556;6.286;2023-03-01T05:06:36;10.50;10.50;4.00
51320;PMS5003;38732;49.556;6.286;2023-03-01T05:09:04;6.67;4.67;1.67
51320;PMS5003;38732;49.556;6.286;2023-03-01T05:11:32;12.00;9.00;4.00
51320;PMS5003;38732;49.556;6.286;2023-03-01T05:14:01;17.33;13.00;3.00
51320;PMS5003;38732;49.556;6.286;2023-03-01T05:16:30;14.50;9.75;6.00
51320;PMS5003;38732;49.556;6.286;2023-03-01T05:18:58;17.00;13.00;8.00
51320;PMS5003;38732;49.556;6.286;2023-03-01T05:21:27;15.00;9.00;6.67
51320;PMS5003;38732;49.556;6.286;2023-03-01T05:23:55;10.33;9.00;6.00
51320;PMS5003;38732;49.556;6.286;2023-03-01T05:28:12;26.25;21.25;12.00
51320;PMS5003;38732;49.556;6.286;2023-03-01T05:30:41;17.00;13.00;7.00
51320;PMS5003;38732;49.556;6.286;2023-03-01T05:33:09;18.50;12.75;8.50
51320;PMS5003;38732;49.556;6.286;2023-03-01T05:35:37;14.00;13.00;6.00
51320;PMS5003;38732;49.556;6.286;2023-03-01T05:38:06;5.50;3.25;1.00
51320;PMS5003;38732;49.556;6.286;2023-03-01T05:40:34;15.50;11.25;5.75
51320;PMS5003;38732;49.556;6.286;2023-03-01T05:43:03;20.00;13.50;6.75
51320;PMS5003;38732;49.556;6.286;2023-03-01T05:45:31;13.00;11.33;6.33
51320;PMS5003;38732;49.556;6.286;2023-03-01T05:47:59;14.00;9.75;1.00
51320;PMS5003;38732;49.556;6.286;2023-03-01T05:50:28;20.75;11.00;5.50
51320;PMS5003;38732;49.556;6.286;2023-03-01T05:53:07;23.20;11.60;6.00
51320;PMS5003;38732;49.556;6.286;2023-03-01T05:55:41;19.20;13.40;7.00
51320;PMS5003;38732;49.556;6.286;2023-03-01T05:58:11;15.60;13.40;7.40
51320;PMS5003;38732;49.556;6.286;2023-03-01T06:00:41;17.25;12.50;7.50
51320;PMS5003;38732;49.556;6.286;2023-03-01T06:03:12;19.40;13.00;6.80
51320;PMS5003;38732;49.556;6.286;2023-03-01T06:05:41;13.00;10.00;6.67
51320;PMS5003;38732;49.556;6.286;2023-03-01T06:08:10;6.75;4.50;1.50
51320;PMS5003;38732;49.556;6.286;2023-03-01T06:10:39;15.40;9.60;4.20
51320;PMS5003;38732;49.556;6.286;2023-03-01T06:13:07;17.25;13.00;7.00
51320;PMS5003;38732;49.556;6.286;2023-03-01T06:15:36;12.50;12.25;6.75
51320;PMS5003;38732;49.556;6.286;2023-03-01T06:18:04;21.75;14.00;7.00
51320;PMS5003;38732;49.556;6.286;2023-03-01T06:20:32;22.75;13.00;9.00
51320;PMS5003;38732;49.556;6.286;2023-03-01T06:23:00;15.00;15.00;9.50
51320;PMS5003;38732;49.556;6.286;2023-03-01T06:25:29;15.25;12.50;6.25
51320;PMS5003;38732;49.556;6.286;2023-03-01T06:27:57;10.50;9.50;3.75
51320;PMS5003;38732;49.556;6.286;2023-03-01T06:30:25;15.00;11.33;3.33
51320;PMS5003;38732;49.556;6.286;2023-03-01T06:32:54;17.00;14.20;8.20
51320;PMS5003;38732;49.556;6.286;2023-03-01T06:35:24;18.80;12.60;7.00
51320;PMS5003;38732;49.556;6.286;2023-03-01T06:37:52;15.50;11.00;4.00
51320;PMS5003;38732;49.556;6.286;2023-03-01T06:40:20;11.00;7.00;1.00
51320;PMS5003;38732;49.556;6.286;2023-03-01T06:42:49;14.00;13.00;6.00
51320;PMS5003;38732;49.556;6.286;2023-03-01T06:45:19;7.20;6.60;6.40
51320;PMS5003;38732;49.556;6.286;2023-03-01T06:47:48;9.60;9.60;5.60
51320;PMS5003;38732;49.556;6.286;2023-03-01T06:50:17;11.75;9.00;3.25
51320;PMS5003;38732;49.556;6.286;2023-03-01T06:52:46;16.80;10.20;5.20
51320;PMS5003;38732;49.556;6.286;2023-03-01T06:55:14;18.00;13.00;7.00
51320;PMS5003;38732;49.556;6.286;2023-03-01T06:57:42;14.00;12.50;7.50
51320;PMS5003;38732;49.556;6.286;2023-03-01T07:00:11;14.75;11.50;5.00
51320;PMS5003;38732;49.556;6.286;2023-03-01T07:02:39;17.00;15.75;7.50
51320;PMS5003;38732;49.556;6.286;2023-03-01T07:05:08;16.50;14.00;8.00
51320;PMS5003;38732;49.556;6.286;2023-03-01T07:07:36;15.75;12.00;6.75
51320;PMS5003;38732;49.556;6.286;2023-03-01T07:10:04;24.33;18.00;8.33
51320;PMS5003;38732;49.556;6.286;2023-03-01T07:12:33;14.25;10.00;6.00
51320;PMS5003;38732;49.556;6.286;2023-03-01T07:15:01;27.75;15.50;9.00
51320;PMS5003;38732;49.556;6.286;2023-03-01T07:17:30;15.00;12.75;7.00
51320;PMS5003;38732;49.556;6.286;2023-03-01T07:19:58;18.75;15.75;7.00
51320;PMS5003;38732;49.556;6.286;2023-03-01T07:22:26;42.33;42.33;25.67
51320;PMS5003;38732;49.556;6.286;2023-03-01T07:24:54;18.50;12.25;5.50
51320;PMS5003;38732;49.556;6.286;2023-03-01T07:27:23;10.50;7.50;1.00
51320;PMS5003;38732;49.556;6.286;2023-03-01T07:29:51;12.50;10.50;8.50
51320;PMS5003;38732;49.556;6.286;2023-03-01T07:32:19;18.75;12.25;7.50
51320;PMS5003;38732;49.556;6.286;2023-03-01T07:34:47;15.67;15.00;10.00
51320;PMS5003;38732;49.556;6.286;2023-03-01T07:37:15;14.50;11.50;8.00
51320;PMS5003;38732;49.556;6.286;2023-03-01T07:39:44;21.75;15.00;9.00
51320;PMS5003;38732;49.556;6.286;2023-03-01T07:42:12;16.25;15.50;9.00
51320;PMS5003;38732;49.556;6.286;2023-03-01T07:44:40;8.50;6.00;0.00
51320;PMS5003;38732;49.556;6.286;2023-03-01T07:47:08;16.00;13.25;8.50
51320;PMS5003;38732;49.556;6.286;2023-03-01T07:49:36;16.50;12.50;7.00
51320;PMS5003;38732;49.556;6.286;2023-03-01T07:52:05;21.50;16.50;9.50
51320;PMS5003;38732;49.556;6.286;2023-03-01T07:54:33;12.00;9.50;3.00
51320;PMS5003;38732;49.556;6.286;2023-03-01T07:57:01;20.00;13.75;7.25
51320;PMS5003;38732;49.556;6.286;2023-03-01T07:59:29;25.25;17.50;9.00
51320;PMS5003;38732;49.556;6.286;2023-03-01T08:01:57;16.50;13.50;6.50
51320;PMS5003;38732;49.556;6.286;2023-03-01T08:04:26;17.75;15.00;9.75
51320;PMS5003;38732;49.556;6.286;2023-03-01T08:06:54;10.00;10.00;6.25
51320;PMS5003;38732;49.556;6.286;2023-03-01T08:09:23;16.25;15.25;7.00
51320;PMS5003;38732;49.556;6.286;2023-03-01T08:11:51;12.25;4.00;0.75
51320;PMS5003;38732;49.556;6.286;2023-03-01T08:14:19;17.00;14.50;8.00
51320;PMS5003;38732;49.556;6.286;2023-03-01T08:16:48;16.50;15.25;7.50
51320;PMS5003;38732;49.556;6.286;2023-03-01T08:19:17;24.80;18.00;9.20
51320;PMS5003;38732;49.556;6.286;2023-03-01T08:21:45;16.00;12.00;6.00
51320;PMS5003;38732;49.556;6.286;2023-03-01T08:24:14;46.00;36.33;22.00
51320;PMS5003;38732;49.556;6.286;2023-03-01T08:26:42;13.75;7.50;3.00
51320;PMS5003;38732;49.556;6.286;2023-03-01T08:29:10;18.25;13.50;8.00
51320;PMS5003;38732;49.556;6.286;2023-03-01T08:31:39;13.50;11.00;2.50
51320;PMS5003;38732;49.556;6.286;2023-03-01T08:34:09;7.50;7.00;4.50
51320;PMS5003;38732;49.556;6.286;2023-03-01T08:36:40;18.40;13.80;7.00
51320;PMS5003;38732;49.556;6.286;2023-03-01T08:39:10;17.40;16.40;9.00
51320;PMS5003;38732;49.556;6.286;2023-03-01T08:41:40;22.20;15.80;9.40
51320;PMS5003;38732;49.556;6.286;2023-03-01T08:44:09;24.20;17.60;9.40
51320;PMS5003;38732;49.556;6.286;2023-03-01T08:46:40;11.60;9.00;4.40
51320;PMS5003;38732;49.556;6.286;2023-03-01T08:49:16;23.80;17.40;8.20
51320;PMS5003;38732;49.556;6.286;2023-03-01T08:51:46;17.80;13.00;6.00
51320;PMS5003;38732;49.556;6.286;2023-03-01T08:54:19;23.60;18.40;9.20
51320;PMS5003;38732;49.556;6.286;2023-03-01T08:56:49;27.40;16.80;9.80
51320;PMS5003;38732;49.556;6.286;2023-03-01T08:59:17;48.67;39.67;25.00
51320;PMS5003;38732;49.556;6.286;2023-03-01T09:01:46;17.25;14.50;6.25
51320;PMS5003;38732;49.556;6.286;2023-03-01T09:04:14;27.75;15.75;8.50
51320;PMS5003;38732;49.556;6.286;2023-03-01T09:06:43;24.00;16.25;10.50
51320;PMS5003;38732;49.556;6.286;2023-03-01T09:09:15;21.50;17.50;9.00
51320;PMS5003;38732;49.556;6.286;2023-03-01T09:11:45;35.40;28.80;18.20
51320;PMS5003;38732;49.556;6.286;2023-03-01T09:14:14;27.40;20.40;7.80
51320;PMS5003;38732;49.556;6.286;2023-03-01T09:16:42;32.00;20.75;12.25
51320;PMS5003;38732;49.556;6.286;2023-03-01T09:19:10;37.25;24.00;12.00
51320;PMS5003;38732;49.556;6.286;2023-03-01T09:21:39;39.33;30.67;15.67
51320;PMS5003;38732;49.556;6.286;2023-03-01T09:24:14;50.75;35.25;19.00
51320;PMS5003;38732;49.556;6.286;2023-03-01T09:26:42;26.60;20.40;11.20
51320;PMS5003;38732;49.556;6.286;2023-03-01T09:29:11;22.25;15.75;7.50
51320;PMS5003;38732;49.556;6.286;2023-03-01T09:31:40;18.25;17.50;10.00
51320;PMS5003;38732;49.556;6.286;2023-03-01T09:34:08;25.25;21.00;11.00
51320;PMS5003;38732;49.556;6.286;2023-03-01T09:36:37;32.60;21.80;12.20
51320;PMS5003;38732;49.556;6.286;2023-03-01T09:39:05;51.00;38.50;22.00
51320;PMS5003;38732;49.556;6.286;2023-03-01T09:41:37;49.00;42.50;20.00
51320;PMS5003;38732;49.556;6.286;2023-03-01T09:44:21;41.60;33.20;20.20
51320;PMS5003;38732;49.556;6.286;2023-03-01T09:47:17;50.60;33.60;19.00
51320;PMS5003;38732;49.556;6.286;2023-03-01T09:49:53;46.20;40.20;25.40
51320;PMS5003;38732;49.556;6.286;2023-03-01T09:55:59;34.80;31.40;16.00
51320;PMS5003;38732;49.556;6.286;2023-03-01T09:58:33;37.60;36.20;21.80
51320;PMS5003;38732;49.556;6.286;2023-03-01T10:09:32;49.40;40.00;22.00
51320;PMS5003;38732;49.556;6.286;2023-03-01T10:12:02;50.60;44.40;25.00
51320;PMS5003;38732;49.556;6.286;2023-03-01T10:14:44;47.40;43.20;23.60
51320;PMS5003;38732;49.556;6.286;2023-03-01T10:20:10;46.80;36.40;22.20
51320;PMS5003;38732;49.556;6.286;2023-03-01T10:22:44;51.00;43.20;25.00
51320;PMS5003;38732;49.556;6.286;2023-03-01T10:25:13;55.50;43.50;23.25
51320;PMS5003;38732;49.556;6.286;2023-03-01T10:27:46;53.80;42.20;24.80
51320;PMS5003;38732;49.556;6.286;2023-03-01T10:30:29;47.60;38.40;23.40
51320;PMS5003;38732;49.556;6.286;2023-03-01T10:33:03;44.60;37.80;18.40
51320;PMS5003;38732;49.556;6.286;2023-03-01T10:35:34;53.20;44.60;24.60
51320;PMS5003;38732;49.556;6.286;2023-03-01T10:38:07;48.50;39.00;25.00
51320;PMS5003;38732;49.556;6.286;2023-03-01T10:40:36;53.00;42.40;25.20
51320;PMS5003;38732;49.556;6.286;2023-03-01T10:43:17;56.80;46.00;27.80
51320;PMS5003;38732;49.556;6.286;2023-03-01T10:45:47;45.60;40.00;23.60
51320;PMS5003;38732;49.556;6.286;2023-03-01T10:48:23;50.00;43.20;25.00
51320;PMS5003;38732;49.556;6.286;2023-03-01T10:53:33;46.80;41.00;23.20
51320;PMS5003;38732;49.556;6.286;2023-03-01T10:58:36;43.00;36.80;23.00
51320;PMS5003;38732;49.556;6.286;2023-03-01T11:01:06;48.80;40.00;22.60
51320;PMS5003;38732;49.556;6.286;2023-03-01T11:06:33;54.40;40.60;25.20
51320;PMS5003;38732;49.556;6.286;2023-03-01T11:11:42;44.20;36.80;20.60
51320;PMS5003;38732;49.556;6.286;2023-03-01T11:14:18;45.25;39.50;24.75
51320;PMS5003;38732;49.556;6.286;2023-03-01T11:16:58;42.20;38.60;18.40
51320;PMS5003;38732;49.556;6.286;2023-03-01T11:19:29;49.80;43.40;26.20
51320;PMS5003;38732;49.556;6.286;2023-03-01T11:24:46;49.60;40.80;22.40
51320;PMS5003;38732;49.556;6.286;2023-03-01T11:27:28;43.20;40.00;24.00
51320;PMS5003;38732;49.556;6.286;2023-03-01T11:30:02;46.60;35.80;22.20
51320;PMS5003;38732;49.556;6.286;2023-03-01T11:32:47;54.80;42.80;24.60
51320;PMS5003;38732;49.556;6.286;2023-03-01T11:35:25;54.40;41.40;26.00
51320;PMS5003;38732;49.556;6.286;2023-03-01T11:38:02;56.80;42.40;26.00
51320;PMS5003;38732;49.556;6.286;2023-03-01T11:40:41;50.80;43.00;25.40
51320;PMS5003;38732;49.556;6.286;2023-03-01T11:45:47;50.40;41.80;27.20
51320;PMS5003;38732;49.556;6.286;2023-03-01T11:48:34;56.20;44.60;25.80
51320;PMS5003;38732;49.556;6.286;2023-03-01T11:51:09;46.60;32.40;21.20
51320;PMS5003;38732;49.556;6.286;2023-03-01T11:59:02;52.60;43.80;26.60
51320;PMS5003;38732;49.556;6.286;2023-03-01T12:07:46;47.60;41.00;21.00
51320;PMS5003;38732;49.556;6.286;2023-03-01T12:10:28;51.20;40.20;24.40
51320;PMS5003;38732;49.556;6.286;2023-03-01T12:19:29;45.60;38.20;25.40
51320;PMS5003;38732;49.556;6.286;2023-03-01T12:24:27;53.00;43.20;26.20
51320;PMS5003;38732;49.556;6.286;2023-03-01T12:32:34;46.40;38.40;22.20
51320;PMS5003;38732;49.556;6.286;2023-03-01T12:35:16;41.80;35.80;23.40
51320;PMS5003;38732;49.556;6.286;2023-03-01T12:38:00;40.00;36.40;23.00
51320;PMS5003;38732;49.556;6.286;2023-03-01T12:43:33;50.60;39.80;25.80
51320;PMS5003;38732;49.556;6.286;2023-03-01T12:46:46;72.80;54.20;35.00
51320;PMS5003;38732;49.556;6.286;2023-03-01T12:49:13;46.20;35.00;23.00
51320;PMS5003;38732;49.556;6.286;2023-03-01T12:51:54;40.60;36.80;22.40
51320;PMS5003;38732;49.556;6.286;2023-03-01T12:54:29;68.20;54.00;33.20
51320;PMS5003;38732;49.556;6.286;2023-03-01T12:57:10;44.40;37.20;23.00
51320;PMS5003;38732;49.556;6.286;2023-03-01T13:02:32;64.40;51.00;32.40
51320;PMS5003;38732;49.556;6.286;2023-03-01T13:13:24;43.80;38.40;24.00
51320;PMS5003;38732;49.556;6.286;2023-03-01T13:15:55;48.00;37.60;23.80
51320;PMS5003;38732;49.556;6.286;2023-03-01T13:20:55;36.80;33.40;21.80
51320;PMS5003;38732;49.556;6.286;2023-03-01T13:23:27;46.20;36.00;21.00
51320;PMS5003;38732;49.556;6.286;2023-03-01T13:26:10;43.00;36.20;23.20
51320;PMS5003;38732;49.556;6.286;2023-03-01T13:28:50;40.00;36.60;22.20
51320;PMS5003;38732;49.556;6.286;2023-03-01T13:33:58;45.60;38.00;23.20
51320;PMS5003;38732;49.556;6.286;2023-03-01T13:49:42;39.40;34.80;20.20
51320;PMS5003;38732;49.556;6.286;2023-03-01T13:55:00;36.60;34.00;20.40
51320;PMS5003;38732;49.556;6.286;2023-03-01T13:57:33;39.50;34.25;22.25
51320;PMS5003;38732;49.556;6.286;2023-03-01T14:00:04;36.40;35.40;21.80
51320;PMS5003;38732;49.556;6.286;2023-03-01T14:02:33;38.00;35.20;19.20
51320;PMS5003;38732;49.556;6.286;2023-03-01T14:05:01;34.00;30.50;17.00
51320;PMS5003;38732;49.556;6.286;2023-03-01T14:07:29;44.25;37.75;23.00
51320;PMS5003;38732;49.556;6.286;2023-03-01T14:09:58;46.00;41.00;25.75
51320;PMS5003;38732;49.556;6.286;2023-03-01T14:15:10;41.40;36.00;23.00
51320;PMS5003;38732;49.556;6.286;2023-03-01T14:20:41;40.00;34.20;18.40
51320;PMS5003;38732;49.556;6.286;2023-03-01T14:23:13;41.60;38.20;25.00
51320;PMS5003;38732;49.556;6.286;2023-03-01T14:26:01;38.80;35.20;22.60
51320;PMS5003;38732;49.556;6.286;2023-03-01T14:28:30;43.60;36.00;22.80
51320;PMS5003;38732;49.556;6.286;2023-03-01T14:31:00;38.00;35.20;17.80
51320;PMS5003;38732;49.556;6.286;2023-03-01T14:33:33;40.50;36.00;21.00
51320;PMS5003;38732;49.556;6.286;2023-03-01T14:36:09;39.00;35.20;22.00
51320;PMS5003;38732;49.556;6.286;2023-03-01T14:38:40;38.60;33.80;20.00
51320;PMS5003;38732;49.556;6.286;2023-03-01T14:41:17;33.60;33.60;21.80
51320;PMS5003;38732;49.556;6.286;2023-03-01T14:43:52;45.60;37.20;23.80
51320;PMS5003;38732;49.556;6.286;2023-03-01T14:46:24;38.00;35.40;20.40
51320;PMS5003;38732;49.556;6.286;2023-03-01T14:49:10;41.40;33.00;20.80
51320;PMS5003;38732;49.556;6.286;2023-03-01T14:51:42;42.20;37.20;24.00
51320;PMS5003;38732;49.556;6.286;2023-03-01T14:54:24;50.60;38.20;23.20
51320;PMS5003;38732;49.556;6.286;2023-03-01T14:56:57;40.60;35.60;22.40
51320;PMS5003;38732;49.556;6.286;2023-03-01T14:59:28;42.20;36.20;23.00
51320;PMS5003;38732;49.556;6.286;2023-03-01T15:01:57;42.50;38.25;21.00
51320;PMS5003;38732;49.556;6.286;2023-03-01T15:04:27;42.40;33.60;18.60
51320;PMS5003;38732;49.556;6.286;2023-03-01T15:06:56;37.40;30.80;20.00
51320;PMS5003;38732;49.556;6.286;2023-03-01T15:09:25;38.20;36.00;22.80
51320;PMS5003;38732;49.556;6.286;2023-03-01T15:11:53;41.50;34.50;19.75
51320;PMS5003;38732;49.556;6.286;2023-03-01T15:14:29;32.25;31.25;19.00
51320;PMS5003;38732;49.556;6.286;2023-03-01T15:20:16;32.00;31.20;17.60
51320;PMS5003;38732;49.556;6.286;2023-03-01T15:22:46;43.80;39.40;22.60
51320;PMS5003;38732;49.556;6.286;2023-03-01T15:25:15;42.00;35.75;21.75
51320;PMS5003;38732;49.556;6.286;2023-03-01T15:27:49;42.60;36.20;21.00
51320;PMS5003;38732;49.556;6.286;2023-03-01T15:30:27;30.40;28.00;16.20
51320;PMS5003;38732;49.556;6.286;2023-03-01T15:35:47;36.00;33.80;20.20
51320;PMS5003;38732;49.556;6.286;2023-03-01T15:40:54;32.60;29.40;17.20
51320;PMS5003;38732;49.556;6.286;2023-03-01T15:46:28;37.40;35.40;22.80
51320;PMS5003;38732;49.556;6.286;2023-03-01T15:49:04;45.80;31.80;19.00
51320;PMS5003;38732;49.556;6.286;2023-03-01T15:51:51;33.60;33.00;22.80
51320;PMS5003;38732;49.556;6.286;2023-03-01T15:54:23;33.40;32.40;20.80
51320;PMS5003;38732;49.556;6.286;2023-03-01T15:56:54;39.40;31.60;18.00
51320;PMS5003;38732;49.556;6.286;2023-03-01T15:59:22;35.75;33.25;22.00
51320;PMS5003;38732;49.556;6.286;2023-03-01T16:01:50;40.50;37.00;21.00
51320;PMS5003;38732;49.556;6.286;2023-03-01T16:04:19;45.75;34.00;20.75
51320;PMS5003;38732;49.556;6.286;2023-03-01T16:06:47;44.75;32.25;19.50
51320;PMS5003;38732;49.556;6.286;2023-03-01T16:09:15;38.75;34.00;20.25
51320;PMS5003;38732;49.556;6.286;2023-03-01T16:11:44;39.00;32.50;21.00
51320;PMS5003;38732;49.556;6.286;2023-03-01T16:14:12;27.75;24.50;14.50
51320;PMS5003;38732;49.556;6.286;2023-03-01T16:16:40;44.25;35.00;21.25
51320;PMS5003;38732;49.556;6.286;2023-03-01T16:19:08;38.25;32.50;19.75
51320;PMS5003;38732;49.556;6.286;2023-03-01T16:21:36;36.00;30.00;16.25
51320;PMS5003;38732;49.556;6.286;2023-03-01T16:24:05;46.50;37.75;20.00
51320;PMS5003;38732;49.556;6.286;2023-03-01T16:26:34;40.75;33.25;21.00
51320;PMS5003;38732;49.556;6.286;2023-03-01T16:29:04;34.40;29.80;18.40